Rock, Michigan
Current Conditions -  °F | °C
As of 3:17 AM on Sunday 26 Oct 2014 (Local Time) from KSAW Reporting Station
Clear Clear  
Wind Chill: 37°   Ceiling: Unl
Heat Index: 43°   Visibility: 10mi
Dew Point: 31°   Wind: 9mph
Humidity: 62%   Direction: 310°NW
Pressure: 29.87"   Gusts: NA
Location:  46.07°N, 87.17°W
Report Text: KSAW 260717Z AUTO 31008KT 10SM CLR 06/M01 A2987 RMK AO2 T00601007
Loading
Personal Weather Stations






























Interactive Weather Map
Tropical Storm Tracking
New forecast layout! Learn more

10-Day Weather Forecast

Advertisements
Track Severe Weather on mobile